sensor_id;sensor_type;location;lat;lon;timestamp;pressure;altitude;pressure_sealevel;temperature;humidity
72423;BME280;71399;54.146;38.734;2023-08-31T00:00:43;98026.59;;;13.65;100.00
72423;BME280;71399;54.146;38.734;2023-08-31T00:03:10;98035.03;;;13.67;100.00
72423;BME280;71399;54.146;38.734;2023-08-31T00:05:36;98022.56;;;13.68;100.00
72423;BME280;71399;54.146;38.734;2023-08-31T00:08:02;98018.09;;;13.68;100.00
72423;BME280;71399;54.146;38.734;2023-08-31T00:10:28;98007.50;;;13.68;100.00
72423;BME280;71399;54.146;38.734;2023-08-31T00:12:55;98002.47;;;13.67;100.00
72423;BME280;71399;54.146;38.734;2023-08-31T00:15:21;98005.13;;;13.67;100.00
72423;BME280;71399;54.146;38.734;2023-08-31T00:17:47;98007.50;;;13.68;100.00
72423;BME280;71399;54.146;38.734;2023-08-31T00:20:13;98008.28;;;13.69;100.00
72423;BME280;71399;54.146;38.734;2023-08-31T00:22:39;98010.41;;;13.67;100.00
72423;BME280;71399;54.146;38.734;2023-08-31T00:25:05;98017.56;;;13.66;100.00
72423;BME280;71399;54.146;38.734;2023-08-31T00:27:34;98021.56;;;13.64;100.00
72423;BME280;71399;54.146;38.734;2023-08-31T00:30:04;98025.84;;;13.60;100.00
72423;BME280;71399;54.146;38.734;2023-08-31T00:32:33;98029.66;;;13.53;100.00
72423;BME280;71399;54.146;38.734;2023-08-31T00:35:00;98021.78;;;13.48;100.00
72423;BME280;71399;54.146;38.734;2023-08-31T00:37:26;98020.75;;;13.44;100.00
72423;BME280;71399;54.146;38.734;2023-08-31T00:39:53;98010.78;;;13.36;100.00
72423;BME280;71399;54.146;38.734;2023-08-31T00:42:20;98029.59;;;13.34;100.00
72423;BME280;71399;54.146;38.734;2023-08-31T00:44:46;98031.78;;;13.27;100.00
72423;BME280;71399;54.146;38.734;2023-08-31T00:47:13;98032.91;;;13.21;100.00
72423;BME280;71399;54.146;38.734;2023-08-31T00:49:40;98048.53;;;13.18;100.00
72423;BME280;71399;54.146;38.734;2023-08-31T00:52:06;98058.63;;;13.15;100.00
72423;BME280;71399;54.146;38.734;2023-08-31T00:54:32;98064.47;;;13.12;100.00
72423;BME280;71399;54.146;38.734;2023-08-31T00:57:00;98077.19;;;13.10;100.00
72423;BME280;71399;54.146;38.734;2023-08-31T00:59:27;98089.38;;;13.11;100.00
72423;BME280;71399;54.146;38.734;2023-08-31T01:02:01;98076.94;;;13.12;100.00
72423;BME280;71399;54.146;38.734;2023-08-31T01:04:34;98068.75;;;13.08;100.00
72423;BME280;71399;54.146;38.734;2023-08-31T01:07:21;98075.13;;;13.07;100.00
72423;BME280;71399;54.146;38.734;2023-08-31T01:12:54;98076.75;;;13.03;100.00
72423;BME280;71399;54.146;38.734;2023-08-31T01:15:24;98076.22;;;13.01;100.00
72423;BME280;71399;54.146;38.734;2023-08-31T01:17:52;98081.00;;;12.99;100.00
72423;BME280;71399;54.146;38.734;2023-08-31T01:20:26;98082.38;;;12.96;100.00
72423;BME280;71399;54.146;38.734;2023-08-31T01:22:58;98082.13;;;12.93;100.00
72423;BME280;71399;54.146;38.734;2023-08-31T01:25:26;98085.06;;;12.91;100.00
72423;BME280;71399;54.146;38.734;2023-08-31T01:27:52;98089.25;;;12.92;100.00
72423;BME280;71399;54.146;38.734;2023-08-31T01:30:18;98092.69;;;12.93;100.00
72423;BME280;71399;54.146;38.734;2023-08-31T01:32:44;98088.50;;;12.92;100.00
72423;BME280;71399;54.146;38.734;2023-08-31T01:35:10;98087.44;;;12.88;100.00
72423;BME280;71399;54.146;38.734;2023-08-31T01:40:07;98099.91;;;12.87;100.00
72423;BME280;71399;54.146;38.734;2023-08-31T01:42:38;98086.94;;;12.86;100.00
72423;BME280;71399;54.146;38.734;2023-08-31T01:45:04;98090.69;;;12.85;100.00
72423;BME280;71399;54.146;38.734;2023-08-31T01:47:31;98095.97;;;12.85;100.00
72423;BME280;71399;54.146;38.734;2023-08-31T01:49:57;98094.88;;;12.86;100.00
72423;BME280;71399;54.146;38.734;2023-08-31T01:52:23;98087.22;;;12.84;100.00
72423;BME280;71399;54.146;38.734;2023-08-31T01:54:49;98097.28;;;12.82;100.00
72423;BME280;71399;54.146;38.734;2023-08-31T01:57:15;98099.44;;;12.80;100.00
72423;BME280;71399;54.146;38.734;2023-08-31T02:00:04;98105.78;;;12.79;100.00
72423;BME280;71399;54.146;38.734;2023-08-31T02:02:40;98111.34;;;12.77;100.00
72423;BME280;71399;54.146;38.734;2023-08-31T02:05:06;98126.16;;;12.78;100.00
72423;BME280;71399;54.146;38.734;2023-08-31T02:07:32;98137.50;;;12.79;100.00
72423;BME280;71399;54.146;38.734;2023-08-31T02:09:58;98124.06;;;12.75;100.00
72423;BME280;71399;54.146;38.734;2023-08-31T02:12:24;98136.22;;;12.76;100.00
72423;BME280;71399;54.146;38.734;2023-08-31T02:14:50;98152.31;;;12.80;100.00
72423;BME280;71399;54.146;38.734;2023-08-31T02:17:16;98154.13;;;12.85;100.00
72423;BME280;71399;54.146;38.734;2023-08-31T02:19:43;98153.28;;;12.89;100.00
72423;BME280;71399;54.146;38.734;2023-08-31T02:22:09;98170.97;;;12.94;100.00
72423;BME280;71399;54.146;38.734;2023-08-31T02:24:35;98164.09;;;12.98;100.00
72423;BME280;71399;54.146;38.734;2023-08-31T02:27:01;98174.63;;;13.03;100.00
72423;BME280;71399;54.146;38.734;2023-08-31T02:29:27;98167.69;;;13.07;100.00
72423;BME280;71399;54.146;38.734;2023-08-31T02:31:53;98164.78;;;13.09;100.00
72423;BME280;71399;54.146;38.734;2023-08-31T02:34:19;98169.50;;;13.12;100.00
72423;BME280;71399;54.146;38.734;2023-08-31T02:36:45;98167.66;;;13.12;100.00
72423;BME280;71399;54.146;38.734;2023-08-31T02:39:11;98169.25;;;13.13;100.00
72423;BME280;71399;54.146;38.734;2023-08-31T02:41:38;98175.59;;;13.12;100.00
72423;BME280;71399;54.146;38.734;2023-08-31T02:44:04;98176.66;;;13.11;100.00
72423;BME280;71399;54.146;38.734;2023-08-31T02:46:31;98174.03;;;13.11;100.00
72423;BME280;71399;54.146;38.734;2023-08-31T02:48:56;98176.91;;;13.15;100.00
72423;BME280;71399;54.146;38.734;2023-08-31T02:51:22;98175.53;;;13.18;100.00
72423;BME280;71399;54.146;38.734;2023-08-31T02:53:48;98173.44;;;13.14;100.00
72423;BME280;71399;54.146;38.734;2023-08-31T02:56:14;98173.16;;;13.16;100.00
72423;BME280;71399;54.146;38.734;2023-08-31T02:58:40;98172.13;;;13.17;100.00
72423;BME280;71399;54.146;38.734;2023-08-31T03:01:07;98178.47;;;13.16;100.00
72423;BME280;71399;54.146;38.734;2023-08-31T03:03:34;98167.09;;;13.15;100.00
72423;BME280;71399;54.146;38.734;2023-08-31T03:06:00;98170.25;;;13.18;100.00
72423;BME280;71399;54.146;38.734;2023-08-31T03:08:26;98171.06;;;13.18;100.00
72423;BME280;71399;54.146;38.734;2023-08-31T03:10:52;98172.34;;;13.21;100.00
72423;BME280;71399;54.146;38.734;2023-08-31T03:13:19;98161.25;;;13.19;100.00
72423;BME280;71399;54.146;38.734;2023-08-31T03:15:45;98153.09;;;13.15;100.00
72423;BME280;71399;54.146;38.734;2023-08-31T03:18:11;98147.03;;;13.09;100.00
72423;BME280;71399;54.146;38.734;2023-08-31T03:20:37;98162.94;;;13.04;100.00
72423;BME280;71399;54.146;38.734;2023-08-31T03:23:03;98170.38;;;13.02;100.00
72423;BME280;71399;54.146;38.734;2023-08-31T03:25:29;98180.41;;;13.05;100.00
72423;BME280;71399;54.146;38.734;2023-08-31T03:27:55;98177.22;;;13.08;100.00
72423;BME280;71399;54.146;38.734;2023-08-31T03:30:21;98178.78;;;13.09;100.00
72423;BME280;71399;54.146;38.734;2023-08-31T03:32:47;98183.28;;;13.09;100.00
72423;BME280;71399;54.146;38.734;2023-08-31T03:35:13;98189.91;;;13.11;100.00
72423;BME280;71399;54.146;38.734;2023-08-31T03:37:39;98192.53;;;13.11;100.00
72423;BME280;71399;54.146;38.734;2023-08-31T03:40:05;98196.72;;;13.18;100.00
72423;BME280;71399;54.146;38.734;2023-08-31T03:42:33;98198.75;;;13.26;100.00
72423;BME280;71399;54.146;38.734;2023-08-31T03:44:59;98206.63;;;13.36;100.00
72423;BME280;71399;54.146;38.734;2023-08-31T03:47:25;98203.88;;;13.46;100.00
72423;BME280;71399;54.146;38.734;2023-08-31T03:49:51;98193.22;;;13.57;100.00
72423;BME280;71399;54.146;38.734;2023-08-31T03:52:17;98188.09;;;13.65;100.00
72423;BME280;71399;54.146;38.734;2023-08-31T03:54:44;98187.25;;;13.70;100.00
72423;BME280;71399;54.146;38.734;2023-08-31T03:57:10;98184.56;;;13.75;100.00
72423;BME280;71399;54.146;38.734;2023-08-31T03:59:35;98186.06;;;13.81;100.00
72423;BME280;71399;54.146;38.734;2023-08-31T04:02:01;98178.84;;;13.87;100.00
72423;BME280;71399;54.146;38.734;2023-08-31T04:04:29;98183.00;;;13.93;100.00
72423;BME280;71399;54.146;38.734;2023-08-31T04:06:55;98175.81;;;13.99;100.00
72423;BME280;71399;54.146;38.734;2023-08-31T04:09:20;98167.28;;;14.02;100.00
72423;BME280;71399;54.146;38.734;2023-08-31T04:11:47;98162.50;;;14.04;100.00
72423;BME280;71399;54.146;38.734;2023-08-31T04:14:13;98167.44;;;14.11;100.00
72423;BME280;71399;54.146;38.734;2023-08-31T04:16:39;98163.44;;;14.13;100.00
72423;BME280;71399;54.146;38.734;2023-08-31T04:19:07;98154.69;;;14.13;100.00
72423;BME280;71399;54.146;38.734;2023-08-31T04:21:33;98151.56;;;14.11;100.00
72423;BME280;71399;54.146;38.734;2023-08-31T04:23:59;98154.19;;;14.11;100.00
72423;BME280;71399;54.146;38.734;2023-08-31T04:26:25;98162.94;;;14.11;100.00
72423;BME280;71399;54.146;38.734;2023-08-31T04:28:51;98171.38;;;14.13;100.00
72423;BME280;71399;54.146;38.734;2023-08-31T04:31:17;98183.00;;;14.17;100.00
72423;BME280;71399;54.146;38.734;2023-08-31T04:33:44;98185.59;;;14.22;100.00
72423;BME280;71399;54.146;38.734;2023-08-31T04:36:10;98192.91;;;14.31;100.00
72423;BME280;71399;54.146;38.734;2023-08-31T04:38:37;98190.97;;;14.36;100.00
72423;BME280;71399;54.146;38.734;2023-08-31T04:41:04;98192.97;;;14.44;100.00
72423;BME280;71399;54.146;38.734;2023-08-31T04:43:30;98199.78;;;14.51;100.00
72423;BME280;71399;54.146;38.734;2023-08-31T04:45:55;98201.31;;;14.57;100.00
72423;BME280;71399;54.146;38.734;2023-08-31T04:48:21;98209.44;;;14.66;100.00
72423;BME280;71399;54.146;38.734;2023-08-31T04:50:47;98203.00;;;14.72;100.00
72423;BME280;71399;54.146;38.734;2023-08-31T04:53:13;98204.38;;;14.83;100.00
72423;BME280;71399;54.146;38.734;2023-08-31T04:55:39;98207.97;;;14.92;100.00
72423;BME280;71399;54.146;38.734;2023-08-31T04:58:05;98200.91;;;15.01;100.00
72423;BME280;71399;54.146;38.734;2023-08-31T05:00:31;98191.53;;;15.09;100.00
72423;BME280;71399;54.146;38.734;2023-08-31T05:02:57;98188.50;;;15.16;100.00
72423;BME280;71399;54.146;38.734;2023-08-31T05:05:23;98189.41;;;15.25;100.00
72423;BME280;71399;54.146;38.734;2023-08-31T05:07:49;98191.09;;;15.35;100.00
72423;BME280;71399;54.146;38.734;2023-08-31T05:10:15;98186.41;;;15.46;100.00
72423;BME280;71399;54.146;38.734;2023-08-31T05:12:42;98187.50;;;15.59;100.00
72423;BME280;71399;54.146;38.734;2023-08-31T05:15:08;98181.66;;;15.76;100.00
72423;BME280;71399;54.146;38.734;2023-08-31T05:17:35;98179.94;;;15.93;100.00
72423;BME280;71399;54.146;38.734;2023-08-31T05:20:01;98173.53;;;16.08;100.00
72423;BME280;71399;54.146;38.734;2023-08-31T05:22:29;98174.63;;;16.21;100.00
72423;BME280;71399;54.146;38.734;2023-08-31T05:24:55;98155.00;;;16.31;100.00
72423;BME280;71399;54.146;38.734;2023-08-31T05:27:21;98153.06;;;16.45;100.00
72423;BME280;71399;54.146;38.734;2023-08-31T05:29:47;98147.34;;;16.52;100.00
72423;BME280;71399;54.146;38.734;2023-08-31T05:32:14;98133.94;;;16.57;100.00
72423;BME280;71399;54.146;38.734;2023-08-31T05:34:40;98121.78;;;16.65;100.00
72423;BME280;71399;54.146;38.734;2023-08-31T05:37:06;98120.41;;;16.67;100.00
72423;BME280;71399;54.146;38.734;2023-08-31T05:39:32;98079.56;;;16.72;100.00
72423;BME280;71399;54.146;38.734;2023-08-31T05:41:58;98065.53;;;16.80;100.00
72423;BME280;71399;54.146;38.734;2023-08-31T05:44:24;98067.78;;;16.87;100.00
72423;BME280;71399;54.146;38.734;2023-08-31T05:46:50;98059.88;;;16.96;100.00
72423;BME280;71399;54.146;38.734;2023-08-31T05:49:16;98060.97;;;17.03;100.00
72423;BME280;71399;54.146;38.734;2023-08-31T05:51:43;98045.84;;;17.13;100.00
72423;BME280;71399;54.146;38.734;2023-08-31T05:54:09;98033.66;;;17.20;100.00
72423;BME280;71399;54.146;38.734;2023-08-31T05:56:38;97998.78;;;17.31;100.00
72423;BME280;71399;54.146;38.734;2023-08-31T05:59:07;98000.03;;;17.42;100.00
72423;BME280;71399;54.146;38.734;2023-08-31T06:01:34;97963.56;;;17.51;100.00
72423;BME280;71399;54.146;38.734;2023-08-31T06:04:00;97962.78;;;17.59;100.00
72423;BME280;71399;54.146;38.734;2023-08-31T06:06:26;97946.63;;;17.73;100.00
72423;BME280;71399;54.146;38.734;2023-08-31T06:08:52;97945.72;;;17.87;100.00
72423;BME280;71399;54.146;38.734;2023-08-31T06:11:19;97956.19;;;18.01;100.00
72423;BME280;71399;54.146;38.734;2023-08-31T06:13:45;97958.22;;;18.12;100.00
72423;BME280;71399;54.146;38.734;2023-08-31T06:16:12;97949.59;;;18.24;100.00
72423;BME280;71399;54.146;38.734;2023-08-31T06:18:38;97938.28;;;18.36;100.00
72423;BME280;71399;54.146;38.734;2023-08-31T06:21:04;97944.50;;;18.49;100.00
72423;BME280;71399;54.146;38.734;2023-08-31T06:23:30;97935.03;;;18.60;100.00
72423;BME280;71399;54.146;38.734;2023-08-31T06:25:56;97929.34;;;18.70;100.00
72423;BME280;71399;54.146;38.734;2023-08-31T06:28:22;97932.16;;;18.83;100.00
72423;BME280;71399;54.146;38.734;2023-08-31T06:30:48;97931.16;;;18.96;100.00
72423;BME280;71399;54.146;38.734;2023-08-31T06:33:14;97934.69;;;19.09;100.00
72423;BME280;71399;54.146;38.734;2023-08-31T06:35:40;97924.88;;;19.22;100.00
72423;BME280;71399;54.146;38.734;2023-08-31T06:38:06;97910.34;;;19.32;100.00
72423;BME280;71399;54.146;38.734;2023-08-31T06:40:32;97897.38;;;19.42;100.00
72423;BME280;71399;54.146;38.734;2023-08-31T06:42:58;97902.78;;;19.55;100.00
72423;BME280;71399;54.146;38.734;2023-08-31T06:45:25;97904.63;;;19.63;100.00
72423;BME280;71399;54.146;38.734;2023-08-31T06:47:52;97907.97;;;19.72;100.00
72423;BME280;71399;54.146;38.734;2023-08-31T06:50:17;97910.59;;;19.81;100.00
72423;BME280;71399;54.146;38.734;2023-08-31T06:52:43;97902.03;;;19.88;100.00
72423;BME280;71399;54.146;38.734;2023-08-31T06:55:12;97901.19;;;19.96;100.00
72423;BME280;71399;54.146;38.734;2023-08-31T06:57:38;97922.03;;;20.03;100.00
72423;BME280;71399;54.146;38.734;2023-08-31T07:00:05;97933.78;;;20.10;100.00
72423;BME280;71399;54.146;38.734;2023-08-31T07:02:33;97913.06;;;20.20;100.00
72423;BME280;71399;54.146;38.734;2023-08-31T07:05:00;97933.59;;;20.28;100.00
72423;BME280;71399;54.146;38.734;2023-08-31T07:07:26;97940.06;;;20.39;100.00
72423;BME280;71399;54.146;38.734;2023-08-31T07:09:52;97941.22;;;20.50;100.00
72423;BME280;71399;54.146;38.734;2023-08-31T07:12:20;97939.22;;;20.60;100.00
72423;BME280;71399;54.146;38.734;2023-08-31T07:14:46;97960.56;;;20.68;100.00
72423;BME280;71399;54.146;38.734;2023-08-31T07:17:11;97968.16;;;20.79;100.00
72423;BME280;71399;54.146;38.734;2023-08-31T07:19:37;98028.88;;;20.87;100.00
72423;BME280;71399;54.146;38.734;2023-08-31T07:22:04;98003.09;;;20.95;100.00
72423;BME280;71399;54.146;38.734;2023-08-31T07:24:31;97989.59;;;21.03;100.00
72423;BME280;71399;54.146;38.734;2023-08-31T07:26:57;97965.03;;;21.14;100.00
72423;BME280;71399;54.146;38.734;2023-08-31T07:29:23;98009.34;;;21.23;100.00
72423;BME280;71399;54.146;38.734;2023-08-31T07:31:50;97970.59;;;21.33;100.00
72423;BME280;71399;54.146;38.734;2023-08-31T07:34:16;97992.34;;;21.44;100.00
72423;BME280;71399;54.146;38.734;2023-08-31T07:36:42;98019.50;;;21.55;100.00
72423;BME280;71399;54.146;38.734;2023-08-31T07:39:08;98009.09;;;21.65;100.00
72423;BME280;71399;54.146;38.734;2023-08-31T07:41:33;98066.72;;;21.72;100.00
72423;BME280;71399;54.146;38.734;2023-08-31T07:43:59;98037.47;;;21.79;100.00
72423;BME280;71399;54.146;38.734;2023-08-31T07:46:25;98090.97;;;21.88;100.00
72423;BME280;71399;54.146;38.734;2023-08-31T07:48:51;98069.38;;;21.96;100.00
72423;BME280;71399;54.146;38.734;2023-08-31T07:51:18;98060.06;;;22.06;100.00
72423;BME280;71399;54.146;38.734;2023-08-31T07:53:49;98288.25;;;22.22;100.00
72423;BME280;71399;54.146;38.734;2023-08-31T07:56:15;98305.72;;;22.41;100.00
72423;BME280;71399;54.146;38.734;2023-08-31T07:58:40;98313.78;;;22.53;100.00
72423;BME280;71399;54.146;38.734;2023-08-31T08:01:07;98523.44;;;22.60;100.00
72423;BME280;71399;54.146;38.734;2023-08-31T08:03:32;98769.88;;;22.63;100.00
72423;BME280;71399;54.146;38.734;2023-08-31T08:05:59;98758.81;;;22.65;100.00
72423;BME280;71399;54.146;38.734;2023-08-31T08:08:25;98743.47;;;22.65;100.00
72423;BME280;71399;54.146;38.734;2023-08-31T08:10:54;98719.47;;;22.69;100.00
72423;BME280;71399;54.146;38.734;2023-08-31T08:13:19;98758.75;;;22.73;100.00
72423;BME280;71399;54.146;38.734;2023-08-31T08:15:45;98799.66;;;22.79;100.00
72423;BME280;71399;54.146;38.734;2023-08-31T08:18:11;98709.34;;;22.87;100.00
72423;BME280;71399;54.146;38.734;2023-08-31T08:20:37;98748.00;;;22.94;100.00
72423;BME280;71399;54.146;38.734;2023-08-31T08:23:04;98748.06;;;23.07;100.00
72423;BME280;71399;54.146;38.734;2023-08-31T08:25:31;98784.63;;;23.20;100.00
72423;BME280;71399;54.146;38.734;2023-08-31T08:27:56;98773.41;;;23.39;100.00
72423;BME280;71399;54.146;38.734;2023-08-31T08:30:22;98778.13;;;23.55;100.00
72423;BME280;71399;54.146;38.734;2023-08-31T08:32:48;98838.91;;;23.68;100.00
72423;BME280;71399;54.146;38.734;2023-08-31T08:35:14;98887.25;;;23.77;100.00
72423;BME280;71399;54.146;38.734;2023-08-31T08:37:40;98896.41;;;23.84;100.00
72423;BME280;71399;54.146;38.734;2023-08-31T08:40:06;98945.88;;;23.92;100.00
72423;BME280;71399;54.146;38.734;2023-08-31T08:42:32;98938.19;;;24.03;100.00
72423;BME280;71399;54.146;38.734;2023-08-31T08:45:04;98934.41;;;24.16;100.00
72423;BME280;71399;54.146;38.734;2023-08-31T08:47:31;98986.38;;;24.29;100.00
72423;BME280;71399;54.146;38.734;2023-08-31T08:49:58;98966.66;;;24.37;100.00
72423;BME280;71399;54.146;38.734;2023-08-31T08:52:26;98974.31;;;24.48;100.00
72423;BME280;71399;54.146;38.734;2023-08-31T08:54:52;98981.31;;;24.61;100.00
72423;BME280;71399;54.146;38.734;2023-08-31T08:57:18;98984.00;;;24.73;100.00
72423;BME280;71399;54.146;38.734;2023-08-31T08:59:45;98995.00;;;24.81;100.00
72423;BME280;71399;54.146;38.734;2023-08-31T09:02:11;99014.22;;;24.91;100.00
72423;BME280;71399;54.146;38.734;2023-08-31T09:04:37;98997.38;;;25.07;100.00
72423;BME280;71399;54.146;38.734;2023-08-31T09:07:04;99026.56;;;25.17;100.00
72423;BME280;71399;54.146;38.734;2023-08-31T09:09:30;99022.44;;;25.20;100.00
72423;BME280;71399;54.146;38.734;2023-08-31T09:11:56;99048.63;;;25.31;100.00
72423;BME280;71399;54.146;38.734;2023-08-31T09:14:21;99027.59;;;25.37;100.00
72423;BME280;71399;54.146;38.734;2023-08-31T09:16:49;99033.91;;;25.41;100.00
72423;BME280;71399;54.146;38.734;2023-08-31T09:19:24;99037.16;;;25.47;100.00
72423;BME280;71399;54.146;38.734;2023-08-31T09:21:55;99052.22;;;25.48;100.00
72423;BME280;71399;54.146;38.734;2023-08-31T09:24:22;99051.66;;;25.55;100.00
72423;BME280;71399;54.146;38.734;2023-08-31T09:26:55;99031.03;;;25.62;100.00
72423;BME280;71399;54.146;38.734;2023-08-31T09:29:21;99048.59;;;25.68;100.00
72423;BME280;71399;54.146;38.734;2023-08-31T09:31:48;99056.78;;;25.72;100.00
72423;BME280;71399;54.146;38.734;2023-08-31T09:34:14;99055.75;;;25.77;100.00
72423;BME280;71399;54.146;38.734;2023-08-31T09:36:40;99050.91;;;25.82;100.00
72423;BME280;71399;54.146;38.734;2023-08-31T09:39:06;99060.91;;;25.82;100.00
72423;BME280;71399;54.146;38.734;2023-08-31T09:41:34;99078.72;;;25.83;100.00
72423;BME280;71399;54.146;38.734;2023-08-31T09:44:33;99081.06;;;25.84;100.00
72423;BME280;71399;54.146;38.734;2023-08-31T09:46:52;99057.41;;;25.94;100.00
72423;BME280;71399;54.146;38.734;2023-08-31T09:49:18;99063.72;;;25.98;100.00
72423;BME280;71399;54.146;38.734;2023-08-31T09:51:47;99054.16;;;26.00;100.00
72423;BME280;71399;54.146;38.734;2023-08-31T09:54:14;99065.47;;;26.06;100.00
72423;BME280;71399;54.146;38.734;2023-08-31T09:56:41;99055.25;;;26.12;100.00
72423;BME280;71399;54.146;38.734;2023-08-31T09:59:07;99071.34;;;26.08;100.00
72423;BME280;71399;54.146;38.734;2023-08-31T10:01:34;99073.47;;;26.15;100.00
72423;BME280;71399;54.146;38.734;2023-08-31T10:04:00;99067.91;;;26.23;100.00
72423;BME280;71399;54.146;38.734;2023-08-31T10:06:27;99082.41;;;26.31;100.00
72423;BME280;71399;54.146;38.734;2023-08-31T10:08:53;99074.06;;;26.36;100.00
72423;BME280;71399;54.146;38.734;2023-08-31T10:11:20;99081.56;;;26.43;100.00
72423;BME280;71399;54.146;38.734;2023-08-31T10:13:48;99074.31;;;26.47;100.00
72423;BME280;71399;54.146;38.734;2023-08-31T10:16:14;99070.25;;;26.53;100.00
72423;BME280;71399;54.146;38.734;2023-08-31T10:18:41;99090.53;;;26.47;100.00
72423;BME280;71399;54.146;38.734;2023-08-31T10:21:07;99087.66;;;26.40;100.00
72423;BME280;71399;54.146;38.734;2023-08-31T10:23:33;99067.25;;;26.42;100.00
72423;BME280;71399;54.146;38.734;2023-08-31T10:26:02;99056.28;;;26.51;100.00
72423;BME280;71399;54.146;38.734;2023-08-31T10:28:29;99081.06;;;26.53;100.00
72423;BME280;71399;54.146;38.734;2023-08-31T10:31:02;99078.88;;;26.59;100.00
72423;BME280;71399;54.146;38.734;2023-08-31T10:33:32;99069.19;;;26.58;100.00
72423;BME280;71399;54.146;38.734;2023-08-31T10:35:58;99070.69;;;26.55;100.00
72423;BME280;71399;54.146;38.734;2023-08-31T10:41:03;99070.69;;;26.55;100.00
72423;BME280;71399;54.146;38.734;2023-08-31T10:46:17;99058.38;;;26.58;100.00
72423;BME280;71399;54.146;38.734;2023-08-31T10:48:51;99075.06;;;26.60;100.00
72423;BME280;71399;54.146;38.734;2023-08-31T10:51:17;99070.53;;;26.64;100.00
72423;BME280;71399;54.146;38.734;2023-08-31T10:53:46;99074.13;;;26.68;100.00
72423;BME280;71399;54.146;38.734;2023-08-31T10:56:12;99095.31;;;26.66;100.00
72423;BME280;71399;54.146;38.734;2023-08-31T10:58:41;99081.44;;;26.68;100.00
72423;BME280;71399;54.146;38.734;2023-08-31T11:01:06;99074.41;;;26.79;100.00
72423;BME280;71399;54.146;38.734;2023-08-31T11:03:32;99072.13;;;26.81;100.00
72423;BME280;71399;54.146;38.734;2023-08-31T11:06:18;99085.28;;;26.83;100.00
72423;BME280;71399;54.146;38.734;2023-08-31T11:08:45;99086.09;;;26.83;100.00
72423;BME280;71399;54.146;38.734;2023-08-31T11:11:11;99084.16;;;26.84;100.00
72423;BME280;71399;54.146;38.734;2023-08-31T11:13:37;99081.22;;;26.89;100.00
72423;BME280;71399;54.146;38.734;2023-08-31T11:16:03;99085.56;;;26.93;100.00
72423;BME280;71399;54.146;38.734;2023-08-31T11:18:30;99087.22;;;26.98;100.00
72423;BME280;71399;54.146;38.734;2023-08-31T11:20:56;99095.31;;;26.98;100.00
72423;BME280;71399;54.146;38.734;2023-08-31T11:23:23;99094.63;;;27.01;100.00
72423;BME280;71399;54.146;38.734;2023-08-31T11:25:49;99088.28;;;27.09;100.00
72423;BME280;71399;54.146;38.734;2023-08-31T11:28:15;99090.72;;;27.14;100.00
72423;BME280;71399;54.146;38.734;2023-08-31T11:30:41;99098.13;;;27.17;100.00
72423;BME280;71399;54.146;38.734;2023-08-31T11:33:09;99101.78;;;27.09;100.00
72423;BME280;71399;54.146;38.734;2023-08-31T11:35:37;99093.25;;;27.07;100.00
72423;BME280;71399;54.146;38.734;2023-08-31T11:38:05;99087.41;;;27.05;100.00
72423;BME280;71399;54.146;38.734;2023-08-31T11:40:31;99090.81;;;27.02;100.00
72423;BME280;71399;54.146;38.734;2023-08-31T11:42:57;99083.38;;;26.99;100.00
72423;BME280;71399;54.146;38.734;2023-08-31T11:45:24;99076.16;;;27.03;100.00
72423;BME280;71399;54.146;38.734;2023-08-31T11:47:51;99077.72;;;27.04;100.00
72423;BME280;71399;54.146;38.734;2023-08-31T11:50:18;99072.38;;;27.08;100.00
72423;BME280;71399;54.146;38.734;2023-08-31T11:52:44;99067.16;;;27.15;100.00
72423;BME280;71399;54.146;38.734;2023-08-31T11:55:14;99068.38;;;27.17;100.00
72423;BME280;71399;54.146;38.734;2023-08-31T11:57:47;99077.38;;;27.22;100.00
72423;BME280;71399;54.146;38.734;2023-08-31T12:00:13;99068.78;;;27.20;100.00
72423;BME280;71399;54.146;38.734;2023-08-31T12:02:41;99068.03;;;27.19;100.00
72423;BME280;71399;54.146;38.734;2023-08-31T12:05:07;99070.47;;;27.24;100.00
72423;BME280;71399;54.146;38.734;2023-08-31T12:07:39;99059.72;;;27.28;100.00
72423;BME280;71399;54.146;38.734;2023-08-31T12:10:06;99060.41;;;27.25;100.00
72423;BME280;71399;54.146;38.734;2023-08-31T12:12:32;99053.44;;;27.24;100.00
72423;BME280;71399;54.146;38.734;2023-08-31T12:15:03;99049.84;;;27.20;100.00
72423;BME280;71399;54.146;38.734;2023-08-31T12:17:30;99045.41;;;27.11;100.00
72423;BME280;71399;54.146;38.734;2023-08-31T12:20:06;99044.56;;;27.07;100.00
72423;BME280;71399;54.146;38.734;2023-08-31T12:22:32;99049.69;;;27.12;100.00
72423;BME280;71399;54.146;38.734;2023-08-31T12:24:59;99056.78;;;27.17;100.00
72423;BME280;71399;54.146;38.734;2023-08-31T12:27:25;99058.44;;;27.22;100.00
72423;BME280;71399;54.146;38.734;2023-08-31T12:29:51;99056.59;;;27.26;100.00
72423;BME280;71399;54.146;38.734;2023-08-31T12:32:17;99042.03;;;27.30;100.00
72423;BME280;71399;54.146;38.734;2023-08-31T12:34:44;99051.34;;;27.33;100.00
72423;BME280;71399;54.146;38.734;2023-08-31T12:37:10;99055.22;;;27.32;100.00
72423;BME280;71399;54.146;38.734;2023-08-31T12:39:36;99054.78;;;27.30;100.00
72423;BME280;71399;54.146;38.734;2023-08-31T12:42:03;99064.28;;;27.24;100.00
72423;BME280;71399;54.146;38.734;2023-08-31T12:44:30;99048.66;;;27.17;100.00
72423;BME280;71399;54.146;38.734;2023-08-31T12:46:56;99047.34;;;27.11;100.00
72423;BME280;71399;54.146;38.734;2023-08-31T12:49:22;99051.56;;;27.08;100.00